Flight Track Log - Related Links

Times and Time Zones

All times are in EDT time to prevent confusion due to time zone crossing. See the UAL4563 flight status page for this flight to view local times or setup timezone preferences in your user account.

Time Position Orientation Groundspeed Altitude Reporting Facility
EDT Latitude Longitude Course Direction KTS MPH feet Rate Location/Type
Thu 07:21:45 PM 41.3939 -81.8814 266° West 157 181 1,700  Level Cleveland Center
Thu 07:22:33 PM 41.3911 -81.9339 266° West 184 212 3,500 2,587 Climbing Cleveland Center
Thu 07:23:34 PM 41.4197 -81.9981 301° West 236 272 6,400 2,920 Climbing Cleveland Center
Thu 07:24:26 PM 41.4567 -82.0406 319° Northwest 243 280 9,000 2,571 Climbing Cleveland Center
Thu 07:25:26 PM 41.5217 -82.0058 22° Northeast 227 261 11,200 1,600 Climbing Cleveland Center
Thu 07:26:26 PM 41.5772 -81.9044 54° Northeast 267 307 12,200 1,250 Climbing Cleveland Center
Thu 07:27:26 PM 41.6389 -81.7889 54° Northeast 332 382 13,700 1,550 Climbing Cleveland Center
Thu 07:28:26 PM 41.7006 -81.6706 55° Northeast 377 434 15,300 1,550 Climbing Cleveland Center
Thu 07:29:26 PM 41.7661 -81.5519 53° Northeast 393 452 16,800 1,300 Climbing Cleveland Center
Thu 07:30:26 PM 41.8317 -81.4247 55° Northeast 405 466 17,900 1,050 Climbing Cleveland Center
Thu 07:31:26 PM 41.8578 -81.2886 76° East 405 466 18,900 1,150 Climbing Cleveland Center
Thu 07:32:26 PM 41.8836 -81.1325 77° East 424 488 20,200 1,300 Climbing Cleveland Center
Thu 07:33:26 PM 41.9092 -80.9681 78° East 438 504 21,500 1,300 Climbing Cleveland Center
Thu 07:34:26 PM 41.9369 -80.8064 77° East 438 504 22,800 1,250 Climbing Cleveland Center
Thu 07:35:26 PM 41.9642 -80.6419 77° East 443 510 24,000 1,150 Climbing Cleveland Center
Thu 07:36:26 PM 41.9911 -80.4603 79° East 448 516 25,100 1,100 Climbing Cleveland Center
Thu 07:37:26 PM 42.0158 -80.2925 79° East 448 516 26,200 1,050 Climbing Cleveland Center
Thu 07:38:26 PM 42.0403 -80.1275 79° East 448 516 27,200 1,050 Climbing Cleveland Center
Thu 07:39:26 PM 42.0667 -79.9650 78° East 448 516 28,300 1,050 Climbing Cleveland Center
Thu 07:40:26 PM 42.0908 -79.8025 79° East 448 516 29,300 1,000 Climbing Cleveland Center
Thu 07:41:26 PM 42.1144 -79.6400 79° East 448 516 30,300 850 Climbing Cleveland Center
Thu 07:42:26 PM 42.1381 -79.4717 79° East 448 516 31,000 350 Climbing Cleveland Center
Thu 07:43:26 PM 42.1633 -79.2975 79° East 453 521 31,000  Level Cleveland Center
Thu 07:44:26 PM 42.1864 -79.1233 80° East 459 528 31,000  Level Cleveland Center
Thu 07:45:26 PM 42.2108 -78.9433 80° East 473 544 31,000  Level Cleveland Center
Thu 07:46:26 PM 42.2353 -78.7658 79° East 479 551 31,000  Level Cleveland Center
Thu 07:47:26 PM 42.2575 -78.5858 80° East 479 551 31,000  Level Cleveland Center
Thu 07:48:26 PM 42.2814 -78.4081 80° East 484 557 31,000  Level Cleveland Center
Thu 07:49:26 PM 42.3028 -78.2278 81° East 484 557 31,000  Level Cleveland Center
Thu 07:50:26 PM 42.3239 -78.0500 81° East 484 557 31,000  Level Cleveland Center
Thu 07:51:26 PM 42.3450 -77.8722 81° East 484 557 31,000  Level Cleveland Center
Thu 07:52:26 PM 42.3656 -77.6914 81° East 484 557 31,000  Level Cleveland Center
Thu 07:53:26 PM 42.3864 -77.5272 80° East 484 557 31,000  Level Cleveland Center
Thu 07:54:26 PM 42.4044 -77.3464 82° East 484 557 31,000  Level Cleveland Center
Thu 07:56:28 PM 42.4450 -76.9792 81° East 493 567 31,000  Level Boston Center
Thu 07:57:28 PM 42.4647 -76.7975 82° East 493 567 31,000  Level Boston Center
Thu 07:58:28 PM 42.4842 -76.6158 82° East 493 567 31,000  Level Boston Center
Thu 07:59:28 PM 42.5033 -76.4311 82° East 493 567 31,000  Level Boston Center
Thu 08:00:28 PM 42.5247 -76.2325 82° East 493 567 31,000 -550 Level Boston Center
Thu 08:01:28 PM 42.5431 -76.0503 82° East 487 560 29,900 -1,000 Descending Boston Center
Thu 08:02:28 PM 42.5611 -75.8708 82° East 482 555 29,000 -450 Descending Boston Center
Thu 08:03:28 PM 42.5769 -75.6914 83° East 482 555 29,000  Level Boston Center
Thu 08:04:28 PM 42.5967 -75.5089 82° East 482 555 29,000 -50 Level Boston Center
Thu 08:05:28 PM 42.6139 -75.3264 83° East 482 555 28,900  Descending Boston Center
Thu 08:06:28 PM 42.6308 -75.1436 83° East 482 555 29,000 50 Climbing Boston Center
Thu 08:07:28 PM 42.6475 -74.9636 83° East 482 555 29,000  Level Boston Center
Thu 08:08:28 PM 42.6639 -74.7808 83° East 482 555 29,000  Level Boston Center
Thu 08:09:28 PM 42.6800 -74.6006 83° East 482 555 29,000  Level Boston Center
Thu 08:10:28 PM 42.6958 -74.4175 83° East 482 555 29,000  Level Boston Center
Thu 08:11:28 PM 42.7114 -74.2372 83° East 482 555 29,000 -750 Level Boston Center
Thu 08:12:28 PM 42.7267 -74.0511 84° East 482 555 27,500 -1,700 Descending Boston Center
Thu 08:13:28 PM 42.7394 -73.8733 84° East 482 555 25,600 -1,650 Descending Boston Center
Thu 08:14:28 PM 42.7542 -73.6900 84° East 482 555 24,200 -1,350 Descending Boston Center
Thu 08:15:28 PM 42.7600 -73.5175 87° East 477 549 22,900 -1,350 Descending Boston Center
Thu 08:16:28 PM 42.7636 -73.3536 88° East 456 525 21,500 -950 Descending Boston Center
Thu 08:17:28 PM 42.7711 -73.1839 86° East 443 510 21,000 -250 Descending Boston Center
Thu 08:18:28 PM 42.7761 -73.0256 87° East 433 498 21,000 -200 Level Boston Center
Thu 08:19:28 PM 42.7789 -72.8586 89° East 433 498 20,600 -1,350 Descending Boston Center
Thu 08:20:28 PM 42.7856 -72.7031 87° East 433 498 18,300 -2,000 Descending Boston Center
Thu 08:21:28 PM 42.7900 -72.5703 87° East 406 467 16,600 -1,750 Descending Boston Center
Thu 08:22:28 PM 42.7900 -72.4400 90° East 370 426 14,800 -1,900 Descending Boston Center
Thu 08:23:28 PM 42.7942 -72.3214 87° East 334 384 12,800 -2,200 Descending Boston Center
Thu 08:24:28 PM 42.8003 -72.1994 86° East 293 337 10,400 -1,800 Descending Boston Center
Thu 08:25:28 PM 42.8083 -72.0892 84° East 288 331 9,200 -950 Descending Boston Center
Thu 08:26:28 PM 42.8058 -71.9872 92° East 280 322 8,500 -950 Descending Boston Center
Thu 08:27:28 PM 42.8014 -71.8828 93° East 275 316 7,300 -1,250 Descending Boston Center
Thu 08:28:28 PM 42.7944 -71.7781 95° East 270 311 6,000 -1,400 Descending Boston Center
Thu 08:29:28 PM 42.7875 -71.6819 96° East 270 311 4,500 -1,150 Descending Boston Center
Thu 08:30:28 PM 42.7828 -71.5858 94° East 260 299 3,700 -900 Descending Boston Center
Thu 08:31:28 PM 42.7758 -71.5067 97° East 241 277 2,700 -600 Descending Boston Center
Thu 08:32:28 PM 42.7856 -71.4189 81° East 215 247 2,500 -150 Descending Boston Center
Thu 08:33:28 PM 42.8186 -71.3758 44° Northeast 183 211 2,400 -450 Descending Boston Center
Thu 08:34:28 PM 42.8583 -71.3922 343° North 126 145 1,600 -700 Descending Boston Center
Thu 08:35:28 PM 42.8875 -71.4058 341° North 131 151 1,000 -542 Descending Boston Center
Thu 08:36:52 PM 42.9275 -71.4333 333° Northwest 131 151 300 8,333 Descending Boston Center
Thu 08:37:52 PM 42.9650 -71.4583 334° Northwest 131 151 21,000 10,350 Climbing Boston Center
Thu 08:38:52 PM 42.9967 -71.4778 336° Northwest 131 151 21,000  Level Boston Center
Thu 08:40:00 PM 42.9328 -71.4358 160° South  Level Estimated
Thu 08:47:00 PM 42.9328 -71.4358 160° South  Level Estimated
Thu 08:48:00 PM 42.9328 -71.4358 160° South  Level Estimated
Thu 08:49:00 PM 42.9328 -71.4358 160° South  Level Estimated
Thu 08:50:00 PM 42.9328 -71.4358 160° South  Level Estimated
Thu 08:51:00 PM 42.9328 -71.4358 160° South  Level Estimated
Thu 08:52:00 PM 42.9328 -71.4358 160° South  Level Estimated
Thu 08:53:00 PM 42.9328 -71.4358 160° South  Level Estimated

Login

Don't have an account? Register now (free) for customized features, flight alerts, and more!